createdAt,value
2023-03-27T00:01:13.463Z,1211.00
2023-03-27T00:05:13.484Z,1215.00
2023-03-27T00:09:13.577Z,1208.00
2023-03-27T00:13:13.667Z,1186.00
2023-03-27T00:17:13.788Z,1200.00
2023-03-27T00:21:13.862Z,1217.00
2023-03-27T00:25:13.947Z,1186.00
2023-03-27T00:29:14.062Z,1214.00
2023-03-27T00:33:14.134Z,1195.00
2023-03-27T00:37:14.274Z,1221.00
2023-03-27T00:41:14.342Z,1204.00
2023-03-27T00:45:14.436Z,1205.00
2023-03-27T00:49:14.539Z,1205.00
2023-03-27T00:53:14.625Z,1217.00
2023-03-27T00:57:14.838Z,1210.00
2023-03-27T01:01:14.927Z,1193.00
2023-03-27T01:05:14.990Z,1197.00
2023-03-27T01:09:20.202Z,1187.00
2023-03-27T01:13:16.138Z,1194.00
2023-03-27T01:17:15.062Z,1213.00
2023-03-27T01:21:15.007Z,1216.00
2023-03-27T01:25:15.161Z,1206.00
2023-03-27T01:29:15.226Z,1207.00
2023-03-27T01:33:15.322Z,1212.00
2023-03-27T01:37:15.419Z,1207.00
2023-03-27T01:41:15.525Z,1199.00
2023-03-27T01:45:15.639Z,1220.00
2023-03-27T01:49:15.700Z,1223.00
2023-03-27T01:53:15.775Z,1218.00
2023-03-27T01:57:15.989Z,1219.00
2023-03-27T02:01:16.040Z,1225.00
2023-03-27T02:05:16.212Z,1208.00
2023-03-27T02:09:16.309Z,1183.00
2023-03-27T02:13:16.464Z,1193.00
2023-03-27T02:17:16.594Z,1192.00
2023-03-27T02:21:16.745Z,1193.00
2023-03-27T02:25:16.939Z,1209.00
2023-03-27T02:29:17.035Z,1211.00
2023-03-27T02:33:17.265Z,1204.00
2023-03-27T02:37:17.364Z,1207.00
2023-03-27T02:41:17.472Z,1224.00
2023-03-27T02:45:17.655Z,1200.00
2023-03-27T02:49:17.749Z,1218.00
2023-03-27T02:53:17.917Z,1213.00
2023-03-27T02:57:18.021Z,1202.00
2023-03-27T03:01:18.140Z,1203.00
2023-03-27T03:05:18.234Z,1199.00
2023-03-27T03:09:18.400Z,1203.00
2023-03-27T03:13:18.502Z,1199.00
2023-03-27T03:17:18.651Z,1204.00
2023-03-27T03:21:18.748Z,1204.00
2023-03-27T03:25:18.877Z,1200.00
2023-03-27T03:29:19.088Z,1201.00
2023-03-27T03:33:19.180Z,1202.00
2023-03-27T03:37:19.343Z,1200.00
2023-03-27T03:41:19.473Z,1195.00
2023-03-27T03:45:19.622Z,1205.00
2023-03-27T03:49:19.813Z,1201.00
2023-03-27T03:53:20.009Z,1204.00
2023-03-27T03:57:20.084Z,1203.00
2023-03-27T04:01:20.217Z,1205.00
2023-03-27T04:05:20.433Z,1100.00
2023-03-27T04:09:20.630Z,974.00
2023-03-27T04:13:20.639Z,789.00
2023-03-27T04:17:20.598Z,630.00
2023-03-27T04:21:20.566Z,567.00
2023-03-27T04:25:20.476Z,518.00
2023-03-27T04:29:20.471Z,500.00
2023-03-27T04:33:20.464Z,521.00
2023-03-27T04:37:23.376Z,561.00
2023-03-27T04:41:20.363Z,586.00
2023-03-27T04:45:20.312Z,632.00
2023-03-27T04:49:20.323Z,655.00
2023-03-27T04:53:20.339Z,701.00
2023-03-27T04:57:20.301Z,675.00
2023-03-27T05:01:20.212Z,673.00
2023-03-27T05:05:20.196Z,692.00
2023-03-27T05:09:20.303Z,698.00
2023-03-27T05:13:20.491Z,712.00
2023-03-27T05:17:20.742Z,719.00
2023-03-27T05:21:20.967Z,713.00
2023-03-27T05:25:20.886Z,708.00
2023-03-27T05:29:20.882Z,702.00
2023-03-27T05:33:20.851Z,697.00
2023-03-27T05:37:20.797Z,757.00
2023-03-27T05:41:20.821Z,887.00
2023-03-27T05:45:20.720Z,866.00
2023-03-27T05:49:20.670Z,852.00
2023-03-27T05:53:20.634Z,815.00
2023-03-27T05:57:21.674Z,768.00
2023-03-27T06:01:20.615Z,719.00
2023-03-27T06:05:20.550Z,674.00
2023-03-27T06:09:20.613Z,673.00
2023-03-27T06:13:20.673Z,665.00
2023-03-27T06:17:20.782Z,699.00
2023-03-27T06:21:20.915Z,752.00
2023-03-27T06:25:20.852Z,743.00
2023-03-27T06:29:21.179Z,779.00
2023-03-27T06:33:20.943Z,737.00
2023-03-27T06:37:20.977Z,729.00
2023-03-27T06:41:21.002Z,825.00
2023-03-27T06:45:20.997Z,902.00
2023-03-27T06:49:21.225Z,1723.00
2023-03-27T06:53:27.396Z,1783.00
2023-03-27T06:57:22.150Z,1661.00
2023-03-27T07:01:21.084Z,1493.00
2023-03-27T07:05:21.207Z,1483.00
2023-03-27T07:09:21.117Z,1373.00
2023-03-27T07:13:21.112Z,1322.00
2023-03-27T07:17:21.033Z,1249.00
2023-03-27T07:21:21.025Z,1192.00
2023-03-27T07:25:20.974Z,947.00
2023-03-27T07:29:20.981Z,1077.00
2023-03-27T07:33:20.945Z,987.00
2023-03-27T07:37:21.146Z,643.00
2023-03-27T07:41:20.842Z,833.00
2023-03-27T07:45:21.177Z,857.00
2023-03-27T07:49:20.730Z,855.00
2023-03-27T07:53:33.884Z,884.00
2023-03-27T07:57:21.807Z,878.00
2023-03-27T08:01:20.656Z,938.00
2023-03-27T08:05:20.607Z,851.00
2023-03-27T08:09:20.646Z,827.00
2023-03-27T08:13:20.558Z,789.00
2023-03-27T08:17:22.048Z,526.00
2023-03-27T08:21:20.463Z,621.00
2023-03-27T08:25:20.473Z,425.00
2023-03-27T08:29:20.588Z,527.00
2023-03-27T08:33:20.784Z,481.00
2023-03-27T08:37:20.854Z,615.00
2023-03-27T08:41:21.048Z,843.00
2023-03-27T08:45:21.209Z,1048.00
2023-03-27T08:49:21.772Z,1172.00
2023-03-27T08:53:21.273Z,1192.00
2023-03-27T08:57:21.675Z,1243.00
2023-03-27T09:01:21.767Z,1393.00
2023-03-27T09:05:21.839Z,1389.00
2023-03-27T09:09:21.977Z,1447.00
2023-03-27T09:13:21.986Z,1482.00
2023-03-27T09:17:22.000Z,1530.00
2023-03-27T09:21:22.179Z,1351.00
2023-03-27T09:25:22.203Z,1569.00
2023-03-27T09:29:22.085Z,1559.00
2023-03-27T09:33:23.310Z,1537.00
2023-03-27T09:37:22.186Z,1549.00
2023-03-27T09:41:22.173Z,1615.00
2023-03-27T09:45:22.174Z,1703.00
2023-03-27T09:49:22.141Z,1719.00
2023-03-27T09:53:22.052Z,1833.00
2023-03-27T09:57:22.032Z,1758.00
2023-03-27T10:01:22.019Z,1741.00
2023-03-27T10:05:22.285Z,1756.00
2023-03-27T10:09:21.962Z,1827.00
2023-03-27T10:13:21.903Z,1784.00
2023-03-27T10:17:21.854Z,1789.00
2023-03-27T10:21:21.869Z,1995.00
2023-03-27T10:25:21.767Z,2205.00
2023-03-27T10:29:22.261Z,928.00
2023-03-27T10:33:21.779Z,1155.00
2023-03-27T10:37:21.707Z,1346.00
2023-03-27T10:41:29.226Z,1390.00
2023-03-27T10:45:22.664Z,1443.00
2023-03-27T10:49:21.562Z,1482.00
2023-03-27T10:53:21.674Z,1651.00
2023-03-27T10:57:21.482Z,1618.00
2023-03-27T11:01:21.549Z,1506.00
2023-03-27T11:05:21.534Z,1606.00
2023-03-27T11:09:21.558Z,1637.00
2023-03-27T11:13:21.507Z,1673.00
2023-03-27T11:17:21.563Z,1669.00
2023-03-27T11:21:21.574Z,1779.00
2023-03-27T11:25:21.586Z,1772.00
2023-03-27T11:29:21.725Z,1718.00
2023-03-27T11:33:21.848Z,1642.00
2023-03-27T11:37:21.811Z,1568.00
2023-03-27T11:41:21.835Z,1516.00
2023-03-27T11:45:21.844Z,1464.00
2023-03-27T11:49:21.942Z,1407.00
2023-03-27T11:53:22.009Z,1341.00
2023-03-27T11:57:22.191Z,1335.00
2023-03-27T12:01:22.277Z,1242.00
2023-03-27T12:05:22.409Z,1074.00
2023-03-27T12:09:22.641Z,670.00
2023-03-27T12:13:28.778Z,1106.00
2023-03-27T12:17:23.730Z,1120.00
2023-03-27T12:21:22.665Z,1176.00
2023-03-27T12:25:22.726Z,1265.00
2023-03-27T12:29:24.468Z,1386.00
2023-03-27T12:33:23.284Z,1404.00
2023-03-27T12:37:22.864Z,1463.00
2023-03-27T12:41:22.857Z,1545.00
2023-03-27T12:45:22.993Z,1488.00
2023-03-27T12:49:44.478Z,1469.00
2023-03-27T12:53:24.376Z,1410.00
2023-03-27T12:57:23.345Z,621.00
2023-03-27T13:01:23.058Z,553.00
2023-03-27T13:05:27.612Z,621.00
2023-03-27T13:09:24.016Z,634.00
2023-03-27T13:13:22.952Z,956.00
2023-03-27T13:17:22.995Z,1231.00
2023-03-27T13:21:23.065Z,1021.00
2023-03-27T13:25:23.243Z,827.00
2023-03-27T13:29:23.621Z,1173.00
2023-03-27T13:33:23.481Z,1162.00
2023-03-27T13:37:23.405Z,1265.00
2023-03-27T13:41:25.627Z,1154.00
2023-03-27T13:45:23.366Z,1361.00
2023-03-27T13:49:23.496Z,1276.00
2023-03-27T13:53:23.966Z,1185.00
2023-03-27T13:57:23.882Z,1112.00
2023-03-27T14:01:24.186Z,1054.00
2023-03-27T14:05:24.289Z,981.00
2023-03-27T14:09:24.459Z,967.00
2023-03-27T14:13:24.672Z,921.00
2023-03-27T14:17:24.673Z,902.00
2023-03-27T14:21:37.812Z,1009.00
2023-03-27T14:25:25.587Z,1046.00
2023-03-27T14:29:24.564Z,1163.00
2023-03-27T14:33:24.615Z,1304.00
2023-03-27T14:37:24.730Z,1392.00
2023-03-27T14:41:24.949Z,1429.00
2023-03-27T14:45:25.001Z,1491.00
2023-03-27T14:49:25.130Z,1555.00
2023-03-27T14:53:25.300Z,1596.00
2023-03-27T14:57:25.453Z,1627.00
2023-03-27T15:01:25.562Z,1649.00
2023-03-27T15:05:25.778Z,1691.00
2023-03-27T15:09:25.968Z,1677.00
2023-03-27T15:13:26.227Z,1685.00
2023-03-27T15:17:26.362Z,1695.00
2023-03-27T15:21:26.483Z,1681.00
2023-03-27T15:25:26.719Z,1710.00
2023-03-27T15:29:26.905Z,1692.00
2023-03-27T15:33:26.837Z,1694.00
2023-03-27T15:37:26.803Z,1676.00
2023-03-27T15:41:26.786Z,1673.00
2023-03-27T15:45:26.744Z,1675.00
2023-03-27T15:49:26.738Z,1679.00
2023-03-27T15:53:26.684Z,1677.00
2023-03-27T15:57:26.670Z,1668.00
2023-03-27T16:01:26.681Z,1670.00
2023-03-27T16:05:26.584Z,1680.00
2023-03-27T16:09:26.486Z,1672.00
2023-03-27T16:13:26.611Z,1681.00
2023-03-27T16:17:26.603Z,1668.00
2023-03-27T16:21:26.563Z,1658.00
2023-03-27T16:25:26.577Z,1652.00
2023-03-27T16:29:26.456Z,1675.00
2023-03-27T16:33:26.427Z,1636.00
2023-03-27T16:37:26.364Z,1641.00
2023-03-27T16:41:26.388Z,1625.00
2023-03-27T16:45:26.339Z,1647.00
2023-03-27T16:49:26.350Z,1601.00
2023-03-27T16:53:26.208Z,1585.00
2023-03-27T16:57:26.200Z,1572.00
2023-03-27T17:01:26.273Z,1533.00
2023-03-27T17:05:26.150Z,1527.00
2023-03-27T17:09:26.107Z,1504.00
2023-03-27T17:13:26.041Z,1513.00
2023-03-27T17:17:26.023Z,1505.00
2023-03-27T17:21:25.971Z,1489.00
2023-03-27T17:25:25.960Z,1498.00
2023-03-27T17:29:25.906Z,1484.00
2023-03-27T17:33:25.859Z,1465.00
2023-03-27T17:37:25.866Z,1452.00
2023-03-27T17:41:25.794Z,1471.00
2023-03-27T17:45:25.791Z,1486.00
2023-03-27T17:49:25.731Z,1489.00
2023-03-27T17:53:25.704Z,1481.00
2023-03-27T17:57:25.678Z,1496.00
2023-03-27T18:01:25.860Z,1496.00
2023-03-27T18:05:25.864Z,1501.00
2023-03-27T18:09:25.972Z,1500.00
2023-03-27T18:13:26.055Z,1487.00
2023-03-27T18:17:26.203Z,1493.00
2023-03-27T18:21:26.244Z,1476.00
2023-03-27T18:25:26.387Z,1478.00
2023-03-27T18:29:26.508Z,1494.00
2023-03-27T18:33:26.651Z,1486.00
2023-03-27T18:37:26.676Z,1517.00
2023-03-27T18:41:26.797Z,1508.00
2023-03-27T18:45:26.862Z,1542.00
2023-03-27T18:49:26.969Z,1397.00
2023-03-27T18:53:27.142Z,1341.00
2023-03-27T18:57:27.338Z,1231.00
2023-03-27T19:01:27.514Z,1071.00
2023-03-27T19:05:27.706Z,930.00
2023-03-27T19:09:34.467Z,878.00
2023-03-27T19:13:28.643Z,818.00
2023-03-27T19:17:27.655Z,771.00
2023-03-27T19:21:27.850Z,843.00
2023-03-27T19:25:28.052Z,943.00
2023-03-27T19:29:28.226Z,1022.00
2023-03-27T19:33:28.374Z,1032.00
2023-03-27T19:37:28.514Z,1121.00
2023-03-27T19:41:28.639Z,1195.00
2023-03-27T19:45:28.774Z,1231.00
2023-03-27T19:49:28.848Z,1315.00
2023-03-27T19:53:28.953Z,1356.00
2023-03-27T19:57:29.057Z,1407.00
2023-03-27T20:01:29.231Z,1435.00
2023-03-27T20:05:29.382Z,1472.00
2023-03-27T20:09:29.461Z,1491.00
2023-03-27T20:13:29.533Z,1518.00
2023-03-27T20:17:29.560Z,1516.00
2023-03-27T20:21:29.625Z,1545.00
2023-03-27T20:25:29.775Z,1543.00
2023-03-27T20:29:29.837Z,1569.00
2023-03-27T20:33:29.912Z,1573.00
2023-03-27T20:37:30.055Z,1561.00
2023-03-27T20:41:30.172Z,1571.00
2023-03-27T20:45:30.354Z,1576.00
2023-03-27T20:49:40.709Z,1588.00
2023-03-27T20:53:33.877Z,1595.00
2023-03-27T20:57:30.292Z,1591.00
2023-03-27T21:01:30.288Z,1605.00
2023-03-27T21:05:30.289Z,1603.00
2023-03-27T21:09:30.154Z,1601.00
2023-03-27T21:13:30.125Z,1602.00
2023-03-27T21:17:30.267Z,1598.00
2023-03-27T21:21:30.066Z,1605.00
2023-03-27T21:25:30.055Z,1595.00
2023-03-27T21:29:29.981Z,1606.00
2023-03-27T21:33:29.942Z,1600.00
2023-03-27T21:37:29.942Z,1600.00
2023-03-27T21:41:29.997Z,1596.00
2023-03-27T21:45:30.130Z,1592.00
2023-03-27T21:49:30.231Z,1580.00
2023-03-27T21:53:30.380Z,1592.00
2023-03-27T21:57:30.430Z,1589.00
2023-03-27T22:01:30.681Z,1591.00
2023-03-27T22:05:30.665Z,1583.00
2023-03-27T22:09:30.803Z,1584.00
2023-03-27T22:13:31.082Z,1588.00
2023-03-27T22:17:31.220Z,1596.00
2023-03-27T22:21:31.262Z,1590.00
2023-03-27T22:25:31.397Z,1595.00
2023-03-27T22:29:31.531Z,1587.00
2023-03-27T22:33:31.580Z,1582.00
2023-03-27T22:37:31.724Z,1584.00
2023-03-27T22:41:31.863Z,1581.00
2023-03-27T22:45:32.046Z,1581.00
2023-03-27T22:49:32.112Z,1584.00
2023-03-27T22:53:32.302Z,1572.00
2023-03-27T22:57:32.457Z,1575.00
2023-03-27T23:01:32.595Z,1573.00
2023-03-27T23:05:32.701Z,1569.00
2023-03-27T23:09:32.852Z,1561.00
2023-03-27T23:13:32.991Z,1570.00
2023-03-27T23:17:33.236Z,1565.00
2023-03-27T23:21:33.422Z,1568.00
2023-03-27T23:25:33.547Z,1562.00
2023-03-27T23:29:33.786Z,1562.00
2023-03-27T23:33:33.940Z,1557.00
2023-03-27T23:37:34.145Z,1554.00
2023-03-27T23:41:34.327Z,1554.00
2023-03-27T23:45:34.586Z,1549.00
2023-03-27T23:49:40.074Z,1549.00
2023-03-27T23:53:34.806Z,1554.00
2023-03-27T23:57:35.042Z,1549.00
